Gervais, Oregon
Current Conditions -  °F | °C
As of 1:53 AM on Sunday 25 Jan 2015 (Local Time) from KUAO Reporting Station
Moderate Fog Moderate Fog  
Wind Chill: 46°   Ceiling: 200
Heat Index: 46°   Visibility: 0.25mi
Dew Point: 46°   Wind: 3mph
Humidity: 100%   Direction: 40°NE
Pressure: 30.24"   Gusts: NA
Location:  45.11°N, 122.9°W
Report Text: KUAO 250953Z AUTO 04003KT 1/4SM FG VV002 08/08 A3024 RMK AO2 SLP239 T00780078 $
Loading
Personal Weather Stations






























Interactive Weather Map New forecast layout! Learn more

10-Day Weather Forecast

Advertisements
Track Severe Weather on mobile